createdAt,value
2018-11-26T00:00:28.045Z,6.70
2018-11-26T00:02:56.742Z,6.70
2018-11-26T00:05:25.456Z,6.70
2018-11-26T00:07:54.138Z,6.80
2018-11-26T00:10:34.303Z,6.70
2018-11-26T00:13:02.983Z,6.80
2018-11-26T00:15:31.695Z,6.80
2018-11-26T00:18:00.398Z,6.70
2018-11-26T00:20:29.115Z,6.80
2018-11-26T00:22:57.814Z,6.70
2018-11-26T00:25:26.539Z,6.80
2018-11-26T00:27:55.247Z,6.80
2018-11-26T00:30:23.930Z,6.70
2018-11-26T00:32:52.633Z,6.70
2018-11-26T00:35:21.342Z,6.70
2018-11-26T00:37:50.022Z,6.60
2018-11-26T00:40:18.841Z,6.60
2018-11-26T00:42:47.533Z,6.50
2018-11-26T00:45:16.233Z,6.50
2018-11-26T00:47:44.935Z,6.40
2018-11-26T00:50:13.636Z,6.40
2018-11-26T00:52:42.330Z,6.30
2018-11-26T00:55:11.194Z,6.30
2018-11-26T00:57:39.889Z,6.30
2018-11-26T01:00:10.714Z,6.20
2018-11-26T01:02:39.412Z,6.10
2018-11-26T01:05:09.974Z,6.00
2018-11-26T01:07:39.003Z,6.00
2018-11-26T01:10:07.714Z,6.00
2018-11-26T01:12:36.412Z,6.10
2018-11-26T01:15:05.642Z,6.00
2018-11-26T01:17:34.338Z,6.00
2018-11-26T01:20:03.039Z,6.10
2018-11-26T01:22:31.733Z,6.10
2018-11-26T01:25:00.439Z,6.00
2018-11-26T01:27:29.136Z,6.00
2018-11-26T01:29:57.822Z,6.00
2018-11-26T01:32:26.536Z,6.00
2018-11-26T01:34:55.235Z,6.00
2018-11-26T01:37:23.932Z,6.00
2018-11-26T01:39:52.645Z,5.90
2018-11-26T01:42:21.355Z,5.90
2018-11-26T01:44:50.047Z,5.90
2018-11-26T01:47:18.767Z,5.90
2018-11-26T01:49:47.484Z,5.90
2018-11-26T01:52:16.182Z,5.80
2018-11-26T01:54:44.869Z,5.80
2018-11-26T01:57:13.554Z,5.80
2018-11-26T01:59:42.279Z,5.80
2018-11-26T02:02:10.973Z,5.70
2018-11-26T02:04:39.675Z,5.70
2018-11-26T02:07:08.666Z,5.70
2018-11-26T02:09:37.377Z,5.60
2018-11-26T02:12:06.451Z,5.60
2018-11-26T02:14:35.158Z,5.60
2018-11-26T02:17:03.891Z,5.60
2018-11-26T02:19:32.583Z,5.50
2018-11-26T02:22:01.288Z,5.50
2018-11-26T02:24:29.978Z,5.50
2018-11-26T02:26:58.682Z,5.50
2018-11-26T02:29:27.395Z,5.40
2018-11-26T02:31:56.082Z,5.40
2018-11-26T02:34:24.763Z,5.40
2018-11-26T02:36:53.462Z,5.40
2018-11-26T02:39:22.150Z,5.50
2018-11-26T02:41:50.859Z,5.40
2018-11-26T02:44:19.537Z,5.40
2018-11-26T02:46:48.239Z,5.40
2018-11-26T02:49:16.972Z,5.40
2018-11-26T02:51:45.668Z,5.40
2018-11-26T02:54:14.378Z,5.40
2018-11-26T02:56:43.090Z,5.30
2018-11-26T02:59:12.119Z,5.30
2018-11-26T03:01:40.827Z,5.30
2018-11-26T03:04:10.828Z,5.30
2018-11-26T03:06:39.671Z,5.20
2018-11-26T03:09:08.486Z,5.20
2018-11-26T03:11:37.317Z,5.20
2018-11-26T03:14:06.368Z,5.10
2018-11-26T03:16:41.072Z,5.10
2018-11-26T03:19:11.855Z,5.10
2018-11-26T03:21:40.648Z,5.10
2018-11-26T03:24:09.347Z,5.00
2018-11-26T03:26:38.044Z,5.00
2018-11-26T03:29:06.771Z,5.10
2018-11-26T03:31:35.458Z,5.00
2018-11-26T03:34:04.170Z,5.00
2018-11-26T03:36:32.859Z,5.00
2018-11-26T03:39:01.600Z,5.00
2018-11-26T03:41:30.310Z,5.00
2018-11-26T03:43:59.002Z,4.90
2018-11-26T03:46:27.703Z,4.90
2018-11-26T03:48:56.407Z,4.80
2018-11-26T03:51:25.097Z,4.90
2018-11-26T03:53:53.806Z,4.80
2018-11-26T03:56:22.498Z,4.80
2018-11-26T03:58:51.227Z,4.90
2018-11-26T04:01:19.940Z,4.90
2018-11-26T04:03:48.753Z,4.80
2018-11-26T04:06:17.442Z,4.80
2018-11-26T04:08:46.134Z,4.80
2018-11-26T04:11:14.830Z,4.80
2018-11-26T04:13:43.534Z,4.80
2018-11-26T04:16:12.226Z,4.80
2018-11-26T04:18:40.911Z,4.70
2018-11-26T04:21:09.609Z,4.70
2018-11-26T04:23:38.306Z,4.70
2018-11-26T04:26:06.993Z,4.70
2018-11-26T04:28:35.711Z,4.60
2018-11-26T04:31:04.516Z,4.60
2018-11-26T04:33:33.211Z,4.60
2018-11-26T04:36:01.920Z,4.60
2018-11-26T04:38:30.606Z,4.60
2018-11-26T04:40:59.298Z,4.60
2018-11-26T04:43:28.023Z,4.50
2018-11-26T04:46:12.507Z,4.50
2018-11-26T04:48:41.222Z,4.50
2018-11-26T04:51:09.918Z,4.40
2018-11-26T04:53:38.606Z,4.40
2018-11-26T04:56:07.322Z,4.40
2018-11-26T04:58:36.010Z,4.40
2018-11-26T05:01:05.016Z,4.40
2018-11-26T05:03:33.707Z,4.30
2018-11-26T05:06:02.450Z,4.30
2018-11-26T05:08:31.138Z,4.30
2018-11-26T05:10:59.830Z,4.30
2018-11-26T05:13:28.603Z,4.30
2018-11-26T05:15:57.315Z,4.30
2018-11-26T05:18:26.003Z,4.30
2018-11-26T05:20:54.715Z,4.30
2018-11-26T05:23:23.441Z,4.30
2018-11-26T05:25:52.138Z,4.30
2018-11-26T05:28:20.822Z,4.30
2018-11-26T05:30:49.518Z,4.30
2018-11-26T05:33:18.215Z,4.30
2018-11-26T05:35:46.915Z,4.40
2018-11-26T05:38:15.620Z,4.40
2018-11-26T05:40:44.334Z,4.40
2018-11-26T05:43:13.023Z,4.40
2018-11-26T05:45:41.706Z,4.40
2018-11-26T05:48:10.438Z,4.40
2018-11-26T05:50:39.121Z,4.40
2018-11-26T05:53:07.849Z,4.40
2018-11-26T05:55:36.570Z,4.40
2018-11-26T05:58:06.399Z,4.40
2018-11-26T06:00:35.978Z,4.40
2018-11-26T06:03:04.885Z,4.40
2018-11-26T06:05:33.607Z,4.40
2018-11-26T06:08:02.301Z,4.40
2018-11-26T06:10:30.997Z,4.50
2018-11-26T06:12:59.712Z,4.60
2018-11-26T06:15:28.437Z,4.60
2018-11-26T06:17:57.138Z,4.70
2018-11-26T06:20:25.830Z,4.80
2018-11-26T06:22:54.542Z,4.90
2018-11-26T06:25:23.226Z,4.90
2018-11-26T06:27:51.930Z,4.90
2018-11-26T06:30:20.623Z,4.90
2018-11-26T06:32:49.324Z,4.80
2018-11-26T06:35:21.282Z,4.80
2018-11-26T06:37:50.035Z,4.70
2018-11-26T06:40:18.746Z,4.70
2018-11-26T06:42:47.441Z,4.70
2018-11-26T06:45:18.298Z,4.70
2018-11-26T06:47:46.990Z,4.70
2018-11-26T06:50:16.767Z,4.80
2018-11-26T06:52:45.570Z,4.80
2018-11-26T06:55:16.386Z,4.80
2018-11-26T06:57:46.130Z,4.80
2018-11-26T07:00:16.265Z,4.80
2018-11-26T07:02:45.158Z,4.80
2018-11-26T07:08:09.722Z,4.70
2018-11-26T07:10:38.418Z,4.80
2018-11-26T07:13:07.114Z,4.80
2018-11-26T07:15:45.938Z,4.90
2018-11-26T07:18:14.638Z,5.00
2018-11-26T07:20:49.355Z,5.00
2018-11-26T07:23:18.042Z,5.00
2018-11-26T07:25:49.082Z,5.00
2018-11-26T07:28:17.782Z,4.90
2018-11-26T07:30:59.012Z,4.90
2018-11-26T07:33:27.735Z,4.80
2018-11-26T07:36:14.538Z,4.80
2018-11-26T07:38:43.260Z,4.80
2018-11-26T07:41:11.967Z,4.80
2018-11-26T07:43:40.681Z,4.80
2018-11-26T07:46:09.374Z,4.80
2018-11-26T07:48:38.116Z,4.80
2018-11-26T07:51:06.798Z,4.90
2018-11-26T07:53:35.726Z,5.00
2018-11-26T07:56:04.394Z,5.00
2018-11-26T07:58:33.091Z,5.00
2018-11-26T08:01:01.795Z,5.10
2018-11-26T08:03:30.570Z,5.10
2018-11-26T08:06:08.983Z,5.10
2018-11-26T08:08:34.585Z,5.10
2018-11-26T08:11:03.273Z,5.10
2018-11-26T08:13:31.982Z,5.10
2018-11-26T08:16:00.691Z,5.10
2018-11-26T08:18:29.382Z,5.10
2018-11-26T08:20:58.074Z,5.10
2018-11-26T08:23:26.789Z,5.20
2018-11-26T08:25:55.499Z,5.30
2018-11-26T08:28:24.226Z,5.40
2018-11-26T08:30:52.939Z,5.40
2018-11-26T08:33:36.062Z,5.50
2018-11-26T08:36:10.370Z,5.70
2018-11-26T08:38:44.690Z,5.80
2018-11-26T08:44:10.236Z,5.90
2018-11-26T08:46:45.575Z,5.90
2018-11-26T08:49:22.610Z,6.00
2018-11-26T08:51:51.326Z,6.00
2018-11-26T08:54:20.014Z,6.00
2018-11-26T08:59:40.025Z,6.10
2018-11-26T09:02:10.076Z,6.00
2018-11-26T09:04:44.249Z,6.00
2018-11-26T09:07:13.215Z,6.10
2018-11-26T09:12:44.857Z,6.30
2018-11-26T09:15:13.550Z,6.40
2018-11-26T09:17:42.253Z,6.40
2018-11-26T09:20:11.490Z,6.50
2018-11-26T09:22:52.854Z,6.50
2018-11-26T09:25:21.564Z,6.60
2018-11-26T09:27:50.254Z,6.70
2018-11-26T09:30:18.938Z,6.80
2018-11-26T09:35:40.047Z,6.90
2018-11-26T09:38:08.743Z,7.00
2018-11-26T09:40:37.435Z,7.00
2018-11-26T09:43:06.990Z,7.10
2018-11-26T09:45:40.071Z,7.20
2018-11-26T09:48:04.418Z,7.20
2018-11-26T09:50:33.390Z,7.30
2018-11-26T09:53:02.078Z,7.30
2018-11-26T09:55:30.774Z,7.40
2018-11-26T09:57:59.499Z,7.40
2018-11-26T10:00:40.130Z,7.50
2018-11-26T10:03:08.843Z,7.50
2018-11-26T10:05:37.531Z,7.50
2018-11-26T10:08:06.487Z,7.50
2018-11-26T10:10:35.386Z,7.60
2018-11-26T10:13:04.087Z,7.60
2018-11-26T10:15:32.975Z,7.70
2018-11-26T10:18:01.690Z,7.70
2018-11-26T10:20:32.619Z,7.70
2018-11-26T10:23:01.397Z,7.70
2018-11-26T10:25:30.043Z,7.70
2018-11-26T10:27:58.733Z,7.70
2018-11-26T10:30:27.439Z,7.80
2018-11-26T10:32:56.120Z,7.80
2018-11-26T10:35:24.868Z,7.80
2018-11-26T10:37:53.555Z,7.80
2018-11-26T10:40:24.103Z,7.90
2018-11-26T10:42:52.820Z,7.90
2018-11-26T10:45:23.453Z,8.00
2018-11-26T10:47:52.386Z,7.90
2018-11-26T10:50:22.823Z,7.90
2018-11-26T10:52:52.695Z,7.90
2018-11-26T10:55:24.887Z,7.90
2018-11-26T10:57:53.615Z,7.90
2018-11-26T11:00:27.741Z,7.90
2018-11-26T11:02:56.456Z,8.00
2018-11-26T11:05:25.172Z,8.00
2018-11-26T11:07:53.858Z,8.10
2018-11-26T11:10:27.815Z,8.00
2018-11-26T11:12:56.498Z,8.00
2018-11-26T11:15:25.203Z,8.00
2018-11-26T11:17:54.026Z,8.00
2018-11-26T11:20:25.227Z,8.10
2018-11-26T11:22:53.950Z,8.10
2018-11-26T11:25:22.883Z,8.10
2018-11-26T11:27:51.851Z,8.10
2018-11-26T11:30:27.930Z,8.20
2018-11-26T11:32:56.629Z,8.20
2018-11-26T11:35:25.316Z,8.20
2018-11-26T11:37:54.595Z,8.20
2018-11-26T11:40:25.264Z,8.20
2018-11-26T11:42:54.029Z,8.20
2018-11-26T11:45:23.119Z,8.20
2018-11-26T11:47:51.840Z,8.20
2018-11-26T11:50:21.163Z,8.20
2018-11-26T11:52:50.452Z,8.20
2018-11-26T11:55:21.303Z,8.20
2018-11-26T11:58:02.159Z,8.20
2018-11-26T12:00:34.336Z,8.20
2018-11-26T12:03:05.076Z,8.30
2018-11-26T12:05:33.866Z,8.30
2018-11-26T12:08:02.600Z,8.40
2018-11-26T12:10:31.304Z,8.30
2018-11-26T12:13:00.044Z,8.40
2018-11-26T12:15:28.751Z,8.40
2018-11-26T12:17:57.452Z,8.40
2018-11-26T12:20:26.189Z,8.50
2018-11-26T12:22:54.859Z,8.50
2018-11-26T12:25:23.588Z,8.50
2018-11-26T12:27:52.307Z,8.50
2018-11-26T12:30:22.282Z,8.60
2018-11-26T12:32:50.984Z,8.60
2018-11-26T12:35:19.728Z,8.60
2018-11-26T12:41:00.879Z,8.60
2018-11-26T12:43:29.599Z,8.50
2018-11-26T12:45:58.340Z,8.50
2018-11-26T12:48:27.027Z,8.50
2018-11-26T12:50:55.715Z,8.50
2018-11-26T12:53:24.452Z,8.50
2018-11-26T12:55:53.156Z,8.60
2018-11-26T12:58:21.848Z,8.60
2018-11-26T13:00:50.551Z,8.50
2018-11-26T13:03:19.240Z,8.50
2018-11-26T13:05:48.342Z,8.50
2018-11-26T13:08:17.081Z,8.50
2018-11-26T13:10:45.752Z,8.50
2018-11-26T13:13:14.508Z,8.60
2018-11-26T13:15:43.194Z,8.60
2018-11-26T13:18:11.888Z,8.60
2018-11-26T13:20:40.608Z,8.50
2018-11-26T13:23:09.799Z,8.50
2018-11-26T13:25:41.962Z,8.50
2018-11-26T13:28:09.137Z,8.50
2018-11-26T13:30:41.648Z,8.50
2018-11-26T13:33:11.936Z,8.50
2018-11-26T13:35:40.624Z,8.60
2018-11-26T13:38:09.804Z,8.60
2018-11-26T13:40:38.514Z,8.60
2018-11-26T13:43:09.556Z,8.60
2018-11-26T13:45:42.099Z,8.50
2018-11-26T13:48:12.042Z,8.50
2018-11-26T13:50:42.854Z,8.50
2018-11-26T13:53:11.546Z,8.40
2018-11-26T13:55:40.247Z,8.30
2018-11-26T13:58:08.955Z,8.30
2018-11-26T14:00:37.658Z,8.30
2018-11-26T14:03:06.367Z,8.30
2018-11-26T14:05:35.124Z,8.20
2018-11-26T14:08:03.808Z,8.10
2018-11-26T14:10:32.512Z,8.10
2018-11-26T14:13:08.732Z,8.10
2018-11-26T14:15:37.432Z,8.10
2018-11-26T14:18:06.132Z,8.10
2018-11-26T14:20:34.889Z,8.00
2018-11-26T14:23:03.669Z,8.00
2018-11-26T14:25:32.371Z,8.00
2018-11-26T14:28:01.083Z,7.90
2018-11-26T14:30:30.270Z,7.90
2018-11-26T14:32:59.015Z,7.80
2018-11-26T14:35:27.776Z,7.80
2018-11-26T14:37:58.932Z,7.70
2018-11-26T14:40:29.675Z,7.60
2018-11-26T14:42:58.400Z,7.60
2018-11-26T14:45:27.100Z,7.60
2018-11-26T14:47:55.854Z,7.50
2018-11-26T14:50:24.554Z,7.50
2018-11-26T14:52:53.651Z,7.50
2018-11-26T14:55:25.290Z,7.50
2018-11-26T14:57:53.995Z,7.50
2018-11-26T15:00:22.692Z,7.50
2018-11-26T15:02:51.411Z,7.50
2018-11-26T15:05:20.128Z,7.50
2018-11-26T15:07:48.836Z,7.40
2018-11-26T15:10:20.535Z,7.40
2018-11-26T15:12:49.304Z,7.30
2018-11-26T15:15:20.120Z,7.20
2018-11-26T15:17:48.812Z,7.20
2018-11-26T15:20:30.391Z,7.20
2018-11-26T15:22:59.950Z,7.20
2018-11-26T15:25:29.859Z,7.20
2018-11-26T15:28:01.304Z,7.10
2018-11-26T15:30:30.048Z,7.10
2018-11-26T15:32:58.772Z,7.00
2018-11-26T15:35:27.476Z,7.10
2018-11-26T15:37:56.206Z,7.10
2018-11-26T15:40:24.952Z,7.00
2018-11-26T15:42:53.759Z,7.00
2018-11-26T15:51:08.188Z,7.00
2018-11-26T15:53:36.920Z,7.00
2018-11-26T15:56:05.955Z,7.00
2018-11-26T15:58:34.880Z,6.90
2018-11-26T16:01:03.619Z,6.90
2018-11-26T16:03:32.308Z,6.90
2018-11-26T16:06:01.007Z,6.80
2018-11-26T16:08:29.724Z,6.80
2018-11-26T16:10:58.412Z,6.80
2018-11-26T16:13:27.176Z,6.80
2018-11-26T16:15:55.889Z,6.70
2018-11-26T16:18:24.605Z,6.80
2018-11-26T16:20:53.530Z,6.70
2018-11-26T16:23:22.414Z,6.70
2018-11-26T16:25:51.249Z,6.70
2018-11-26T16:28:21.697Z,6.70
2018-11-26T16:30:50.593Z,6.70
2018-11-26T16:33:19.512Z,6.60
2018-11-26T16:35:48.289Z,6.60
2018-11-26T16:38:17.128Z,6.60
2018-11-26T16:40:45.978Z,6.60
2018-11-26T16:43:25.477Z,6.60
2018-11-26T16:45:54.390Z,6.60
2018-11-26T16:48:23.158Z,6.70
2018-11-26T16:50:51.993Z,6.70
2018-11-26T16:53:20.759Z,6.70
2018-11-26T16:55:49.546Z,6.70
2018-11-26T16:58:18.380Z,6.70
2018-11-26T17:00:47.229Z,6.70
2018-11-26T17:03:16.001Z,6.70
2018-11-26T17:05:44.778Z,6.60
2018-11-26T17:08:26.121Z,6.60
2018-11-26T17:10:55.008Z,6.60
2018-11-26T17:13:23.732Z,6.60
2018-11-26T17:15:52.440Z,6.60
2018-11-26T17:18:21.152Z,6.60
2018-11-26T17:20:49.856Z,6.60
2018-11-26T17:23:18.565Z,6.60
2018-11-26T17:25:47.341Z,6.70
2018-11-26T17:28:16.109Z,6.70
2018-11-26T17:30:44.861Z,6.60
2018-11-26T17:33:13.600Z,6.50
2018-11-26T17:35:42.301Z,6.40
2018-11-26T17:38:10.991Z,6.40
2018-11-26T17:40:40.136Z,6.40
2018-11-26T17:43:10.760Z,6.40
2018-11-26T17:48:34.157Z,6.40
2018-11-26T17:51:02.906Z,6.40
2018-11-26T17:53:31.600Z,6.40
2018-11-26T17:56:04.695Z,6.40
2018-11-26T17:58:33.387Z,6.40
2018-11-26T18:01:10.744Z,6.40
2018-11-26T18:03:39.455Z,6.50
2018-11-26T18:06:08.152Z,6.50
2018-11-26T18:08:36.908Z,6.40
2018-11-26T18:11:06.721Z,6.30
2018-11-26T18:13:35.439Z,6.20
2018-11-26T18:16:04.196Z,6.20
2018-11-26T18:18:32.901Z,6.10
2018-11-26T18:21:07.235Z,6.00
2018-11-26T18:23:36.040Z,6.10
2018-11-26T18:26:04.757Z,6.10
2018-11-26T18:28:33.499Z,6.00
2018-11-26T18:31:02.245Z,6.00
2018-11-26T18:33:30.975Z,6.00
2018-11-26T18:35:59.766Z,5.90
2018-11-26T18:38:34.123Z,6.00
2018-11-26T18:41:02.862Z,5.90
2018-11-26T18:43:31.567Z,5.80
2018-11-26T18:46:00.319Z,5.90
2018-11-26T18:48:29.032Z,5.90
2018-11-26T18:50:57.804Z,5.80
2018-11-26T18:53:26.568Z,5.80
2018-11-26T18:55:55.751Z,5.80
2018-11-26T18:58:24.561Z,5.90
2018-11-26T19:00:54.992Z,5.90
2018-11-26T19:03:23.779Z,5.90
2018-11-26T19:05:53.673Z,5.90
2018-11-26T19:08:22.906Z,5.90
2018-11-26T19:10:54.673Z,5.80
2018-11-26T19:13:27.457Z,5.80
2018-11-26T19:16:06.629Z,5.70
2018-11-26T19:18:35.601Z,5.70
2018-11-26T19:21:04.717Z,5.70
2018-11-26T19:23:33.570Z,5.70
2018-11-26T19:26:02.820Z,5.60
2018-11-26T19:28:49.185Z,5.70
2018-11-26T19:31:18.025Z,5.70
2018-11-26T19:33:46.856Z,5.70
2018-11-26T19:36:31.171Z,5.80
2018-11-26T19:38:59.917Z,5.80
2018-11-26T19:41:28.682Z,5.80
2018-11-26T19:43:57.495Z,5.70
2018-11-26T19:46:26.301Z,5.70
2018-11-26T19:48:55.093Z,5.60
2018-11-26T19:51:23.885Z,5.60
2018-11-26T19:53:52.738Z,5.60
2018-11-26T19:56:21.504Z,5.60
2018-11-26T19:58:50.392Z,5.60
2018-11-26T20:01:29.985Z,5.50
2018-11-26T20:04:08.496Z,5.50
2018-11-26T20:06:37.321Z,5.50
2018-11-26T20:09:08.682Z,5.50
2018-11-26T20:11:37.476Z,5.50
2018-11-26T20:14:06.709Z,5.50
2018-11-26T20:16:42.064Z,5.60
2018-11-26T20:19:27.470Z,5.60
2018-11-26T20:21:56.322Z,5.60
2018-11-26T20:24:25.124Z,5.70
2018-11-26T20:26:53.936Z,5.70
2018-11-26T20:29:22.817Z,5.70
2018-11-26T20:31:51.645Z,5.60
2018-11-26T20:34:20.396Z,5.50
2018-11-26T20:36:49.262Z,5.50
2018-11-26T20:39:18.049Z,5.50
2018-11-26T20:41:46.881Z,5.50
2018-11-26T20:44:15.721Z,5.40
2018-11-26T20:46:49.043Z,5.50
2018-11-26T20:49:13.330Z,5.40
2018-11-26T20:51:42.140Z,5.40
2018-11-26T20:54:10.851Z,5.40
2018-11-26T20:56:39.547Z,5.40
2018-11-26T20:59:08.350Z,5.40
2018-11-26T21:01:37.077Z,5.40
2018-11-26T21:04:06.040Z,5.30
2018-11-26T21:06:34.752Z,5.30
2018-11-26T21:09:04.269Z,5.40
2018-11-26T21:11:32.975Z,5.30
2018-11-26T21:14:01.721Z,5.30
2018-11-26T21:16:30.447Z,5.20
2018-11-26T21:18:59.194Z,5.10
2018-11-26T21:21:27.965Z,5.00
2018-11-26T21:23:56.869Z,5.00
2018-11-26T21:26:25.757Z,5.00
2018-11-26T21:28:54.576Z,5.00
2018-11-26T21:31:23.413Z,5.00
2018-11-26T21:33:52.229Z,5.00
2018-11-26T21:36:20.972Z,5.00
2018-11-26T21:38:49.878Z,5.00
2018-11-26T21:41:18.737Z,5.10
2018-11-26T21:43:47.476Z,5.10
2018-11-26T21:46:16.278Z,5.20
2018-11-26T21:48:45.176Z,5.30
2018-11-26T21:51:20.745Z,5.30
2018-11-26T21:53:49.576Z,5.30
2018-11-26T21:56:18.416Z,5.30
2018-11-26T21:58:47.206Z,5.20
2018-11-26T22:01:16.067Z,5.20
2018-11-26T22:03:44.873Z,5.20
2018-11-26T22:06:13.715Z,5.20
2018-11-26T22:08:42.533Z,5.20
2018-11-26T22:11:11.471Z,5.30
2018-11-26T22:13:40.164Z,5.30
2018-11-26T22:16:08.852Z,5.30
2018-11-26T22:18:37.871Z,5.30
2018-11-26T22:21:06.600Z,5.30
2018-11-26T22:23:35.296Z,5.30
2018-11-26T22:26:03.991Z,5.20
2018-11-26T22:28:32.690Z,5.20
2018-11-26T22:31:01.384Z,5.20
2018-11-26T22:33:30.096Z,5.10
2018-11-26T22:35:58.791Z,5.10
2018-11-26T22:38:27.488Z,5.00
2018-11-26T22:40:56.200Z,5.00
2018-11-26T22:43:24.900Z,5.00
2018-11-26T22:45:54.255Z,5.00
2018-11-26T22:48:22.960Z,5.10
2018-11-26T22:50:51.648Z,5.20
2018-11-26T22:53:20.360Z,5.20
2018-11-26T22:55:49.043Z,5.20
2018-11-26T22:58:17.740Z,5.30
2018-11-26T23:00:49.316Z,5.30
2018-11-26T23:03:19.146Z,5.30
2018-11-26T23:05:47.845Z,5.30
2018-11-26T23:08:16.564Z,5.30
2018-11-26T23:10:45.283Z,5.30
2018-11-26T23:13:13.982Z,5.20
2018-11-26T23:15:42.689Z,5.20
2018-11-26T23:18:11.371Z,5.20
2018-11-26T23:20:40.155Z,5.20
2018-11-26T23:23:08.847Z,5.10
2018-11-26T23:25:37.552Z,5.20
2018-11-26T23:28:06.252Z,5.20
2018-11-26T23:30:34.951Z,5.10
2018-11-26T23:33:04.352Z,5.10
2018-11-26T23:35:33.068Z,5.10
2018-11-26T23:38:01.754Z,5.00
2018-11-26T23:40:30.447Z,5.00
2018-11-26T23:42:59.202Z,5.00
2018-11-26T23:45:28.732Z,5.00
2018-11-26T23:47:57.463Z,5.10
2018-11-26T23:50:26.185Z,5.10
2018-11-26T23:52:54.883Z,5.20
2018-11-26T23:55:24.326Z,5.20
2018-11-26T23:57:53.011Z,5.30
